Time;durP1;ratioP1;P1;durP2;ratioP2;P2;SDS_P1;SDS_P2;PMS_P1;PMS_P2;Temp;Humidity;BMP_temperature;BMP_pressure;BME280_temperature;BME280_humidity;BME280_pressure;Samples;Min_cycle;Max_cycle;Signal;HPM_P1;HPM_P2
2022/04/26 03:36:28;;;;;;;22.88;15.07;;;;;;;8.14;67.17;99576.09;10339436;28;20076;-81
2022/04/26 03:41:30;;;;;;;22.20;14.70;;;;;;;8.14;67.23;99573.50;10318658;28;20058;-80
2022/04/26 03:46:32;;;;;;;24.23;16.20;;;;;;;8.22;67.00;99572.13;10314692;28;20505;-80
2022/04/26 03:51:33;;;;;;;26.20;16.50;;;;;;;8.24;66.99;99570.28;10326781;28;20077;-81
2022/04/26 03:56:35;;;;;;;20.42;15.30;;;;;;;8.25;66.82;99579.78;10324545;28;20141;-81
2022/04/26 04:01:37;;;;;;;19.15;14.05;;;;;;;8.20;67.04;99576.59;10332929;28;20058;-80
2022/04/26 04:06:39;;;;;;;19.65;14.70;;;;;;;8.11;67.17;99578.88;10330892;28;20047;-80
2022/04/26 04:11:41;;;;;;;20.75;15.40;;;;;;;8.08;67.28;99581.63;10330195;28;20089;-81
2022/04/26 04:16:43;;;;;;;23.00;15.95;;;;;;;8.02;67.53;99575.81;10329380;28;20563;-80
2022/04/26 04:21:45;;;;;;;32.63;21.08;;;;;;;8.13;67.20;99582.22;10336673;28;20076;-81
2022/04/26 04:26:48;;;;;;;54.08;34.33;;;;;;;8.24;67.08;99583.31;10327151;28;20051;-81
2022/04/26 04:31:49;;;;;;;19.90;15.05;;;;;;;8.29;67.08;99588.25;10321458;28;20275;-81
2022/04/26 04:36:51;;;;;;;20.60;15.50;;;;;;;8.39;66.72;99590.28;10331456;28;20104;-80
2022/04/26 04:41:53;;;;;;;26.15;16.83;;;;;;;8.48;66.47;99581.94;10344726;28;20104;-80
2022/04/26 04:46:58;;;;;;;23.17;16.48;;;;;;;8.55;66.23;99593.69;10332497;28;20046;-80
2022/04/26 04:52:00;;;;;;;28.83;17.65;;;;;;;8.67;66.32;99602.56;10334121;28;20089;-80
2022/04/26 04:57:05;;;;;;;25.65;17.05;;;;;;;8.77;65.84;99606.34;10335805;28;20165;-80
2022/04/26 05:02:07;;;;;;;33.55;19.63;;;;;;;8.67;66.19;99602.56;10334190;28;20342;-81
2022/04/26 05:07:09;;;;;;;47.88;22.42;;;;;;;8.70;66.50;99602.41;10328455;28;20522;-81
2022/04/26 05:12:11;;;;;;;31.95;20.10;;;;;;;8.58;66.61;99619.59;10335607;28;20085;-80
2022/04/26 05:17:13;;;;;;;23.02;16.48;;;;;;;8.54;66.60;99614.63;10315978;28;20535;-80
2022/04/26 05:22:14;;;;;;;39.05;21.40;;;;;;;8.61;66.56;99616.81;10322686;28;20050;-81
2022/04/26 05:27:16;;;;;;;38.65;21.00;;;;;;;8.66;66.82;99621.75;10327029;28;20049;-81
2022/04/26 05:32:22;;;;;;;39.47;22.50;;;;;;;8.67;66.83;99621.66;10331520;28;20113;-81
2022/04/26 05:37:25;;;;;;;37.00;22.85;;;;;;;8.57;66.92;99627.47;10341132;28;20153;-80
2022/04/26 05:42:26;;;;;;;37.80;22.33;;;;;;;8.49;67.19;99625.31;10330113;28;20050;-80
2022/04/26 05:47:28;;;;;;;38.15;23.75;;;;;;;8.54;67.32;99620.69;10342058;28;20111;-80
2022/04/26 05:52:30;;;;;;;49.28;25.90;;;;;;;8.60;67.27;99632.53;10342692;28;20058;-81
2022/04/26 05:57:35;;;;;;;32.22;21.48;;;;;;;8.61;67.05;99629.00;10336398;28;20099;-81
2022/04/26 06:02:36;;;;;;;29.13;19.85;;;;;;;8.62;66.59;99620.25;10328222;28;20467;-80
2022/04/26 06:07:38;;;;;;;30.58;20.75;;;;;;;8.65;66.72;99630.50;10329461;28;20047;-80
2022/04/26 06:12:44;;;;;;;32.70;19.95;;;;;;;8.80;66.91;99629.63;10330911;28;20512;-81
2022/04/26 06:17:46;;;;;;;35.45;21.02;;;;;;;8.95;66.60;99626.16;10335464;28;20133;-80
2022/04/26 06:22:48;;;;;;;31.83;20.58;;;;;;;9.06;66.16;99633.34;10334605;28;20057;-81
2022/04/26 06:27:50;;;;;;;27.00;18.33;;;;;;;9.08;65.89;99637.53;10333639;28;20057;-81
2022/04/26 06:32:57;;;;;;;40.72;22.48;;;;;;;9.09;66.35;99652.28;10320889;28;20594;-80
2022/04/26 06:37:59;;;;;;;37.30;21.33;;;;;;;9.11;66.44;99646.97;10316899;28;20566;-80
2022/04/26 06:43:01;;;;;;;26.35;18.33;;;;;;;9.06;66.59;99636.78;10326296;28;20532;-81
2022/04/26 06:48:10;;;;;;;33.35;20.08;;;;;;;9.13;66.77;99650.31;10323915;28;20937;-81
2022/04/26 06:53:13;;;;;;;40.22;22.05;;;;;;;9.06;66.42;99642.00;10319912;28;20108;-81
2022/04/26 06:58:14;;;;;;;33.35;20.58;;;;;;;9.15;66.39;99643.25;10335931;28;20096;-81
2022/04/26 07:03:16;;;;;;;39.60;21.33;;;;;;;9.25;66.14;99637.41;10324765;28;20496;-80
2022/04/26 07:08:18;;;;;;;35.03;21.45;;;;;;;9.26;66.09;99643.47;10323006;28;20061;-81
2022/04/26 07:13:21;;;;;;;48.17;24.17;;;;;;;9.31;66.40;99650.09;10320170;28;20507;-81
2022/04/26 07:18:23;;;;;;;35.70;21.52;;;;;;;9.35;65.91;99651.59;10340102;28;20062;-81
2022/04/26 07:23:25;;;;;;;37.97;21.65;;;;;;;9.31;65.89;99657.91;10327159;28;20046;-81
2022/04/26 07:28:27;;;;;;;32.42;20.48;;;;;;;9.29;65.90;99653.72;10323233;28;20472;-81
2022/04/26 07:39:10;;;;;;;26.38;17.67;;;;;;;9.38;65.99;99663.63;10270893;28;20171;-81
2022/04/26 07:44:12;;;;;;;25.63;17.92;;;;;;;9.36;66.13;99671.53;10291240;28;20140;-81
2022/04/26 07:49:15;;;;;;;28.58;19.15;;;;;;;9.40;66.10;99680.84;10321249;28;20508;-81
2022/04/26 07:54:17;;;;;;;30.25;19.23;;;;;;;9.45;66.19;99686.66;10329746;28;20531;-81
2022/04/26 07:59:19;;;;;;;39.40;20.77;;;;;;;9.52;66.35;99694.97;10322056;28;20057;-80
2022/04/26 08:04:21;;;;;;;27.15;17.38;;;;;;;9.47;66.44;99700.44;10330020;28;20570;-81
2022/04/26 08:09:23;;;;;;;29.67;17.90;;;;;;;9.48;66.47;99706.53;10336072;28;20136;-81
2022/04/26 08:14:24;;;;;;;25.70;18.48;;;;;;;9.44;66.67;99718.88;10334056;28;20922;-81
2022/04/26 08:19:26;;;;;;;28.70;19.33;;;;;;;9.43;66.65;99719.84;10329911;28;20050;-81
2022/04/26 08:29:49;;;;;;;27.27;17.83;;;;;;;9.43;66.55;99745.94;10331805;28;20397;-81
2022/04/26 08:34:51;;;;;;;28.73;17.67;;;;;;;9.60;66.60;99743.19;10328117;28;20524;-80
2022/04/26 08:39:55;;;;;;;24.17;16.48;;;;;;;9.75;66.48;99744.06;10314767;28;20493;-81
2022/04/26 08:44:56;;;;;;;34.22;19.90;;;;;;;9.86;66.36;99748.66;10332672;28;20050;-81
2022/04/26 08:55:19;;;;;;;30.93;20.40;;;;;;;9.65;66.31;99782.06;10326100;28;20046;-81
2022/04/26 09:00:21;;;;;;;36.38;20.73;;;;;;;9.35;66.93;99789.91;10331113;28;20054;-81
2022/04/26 09:05:23;;;;;;;28.85;18.25;;;;;;;9.28;67.34;99798.19;10320631;28;20078;-81
2022/04/26 09:10:26;;;;;;;39.35;21.45;;;;;;;9.53;67.30;99796.69;10333679;28;20057;-81
2022/04/26 09:15:45;;;;;;;33.03;20.70;;;;;;;9.71;67.39;99796.59;10331213;28;20050;-82
2022/04/26 09:20:49;;;;;;;31.90;19.48;;;;;;;9.81;66.95;99795.13;10337352;28;20476;-81
2022/04/26 09:26:12;;;;;;;33.20;21.50;;;;;;;9.89;66.96;99800.75;10334038;28;20054;-82
2022/04/26 09:31:24;;;;;;;36.00;21.38;;;;;;;10.06;66.89;99808.41;10330377;28;20062;-81
2022/04/26 09:36:32;;;;;;;27.20;18.08;;;;;;;10.20;66.57;99811.88;10329511;28;20116;-81
2022/04/26 09:41:35;;;;;;;24.80;17.80;;;;;;;10.21;66.23;99816.19;10329555;28;20147;-81
2022/04/26 09:46:40;;;;;;;23.65;17.02;;;;;;;10.29;66.50;99815.72;10342068;28;20113;-82
2022/04/26 09:51:42;;;;;;;25.13;17.13;;;;;;;10.33;66.07;99814.59;10324710;28;20109;-81
2022/04/26 09:56:45;;;;;;;29.05;20.15;;;;;;;10.52;66.25;99818.59;10318541;28;20054;-81
2022/04/26 10:01:47;;;;;;;29.52;18.30;;;;;;;10.69;66.01;99819.34;10316241;28;20596;-81
2022/04/26 10:07:06;;;;;;;19.73;14.80;;;;;;;10.71;66.20;99814.84;10321534;28;20681;-81
2022/04/26 10:12:08;;;;;;;18.67;14.38;;;;;;;10.80;65.90;99817.75;10326028;28;20566;-81
2022/04/26 10:17:12;;;;;;;18.00;13.75;;;;;;;10.94;65.78;99819.50;10327379;28;20543;-81
2022/04/26 10:22:17;;;;;;;40.05;34.03;;;;;;;10.91;65.69;99822.31;10331637;28;20180;-82
2022/04/26 10:27:25;;;;;;;9.90;8.38;;;;;;;11.00;65.11;99834.81;10334042;28;20116;-82
2022/04/26 10:32:35;;;;;;;7.60;6.07;;;;;;;11.03;64.35;99834.63;10313177;28;20468;-82
2022/04/26 10:37:36;;;;;;;7.70;6.00;;;;;;;11.12;64.12;99836.69;10318147;28;20045;-81
2022/04/26 10:42:38;;;;;;;8.65;6.38;;;;;;;11.19;64.22;99830.94;10331060;28;20148;-82
2022/04/26 10:47:40;;;;;;;7.93;6.00;;;;;;;11.28;64.06;99840.84;10328450;28;20050;-82
2022/04/26 10:52:43;;;;;;;7.25;5.00;;;;;;;11.19;63.85;99851.06;10325383;28;20084;-81
2022/04/26 10:57:47;;;;;;;6.80;5.30;;;;;;;11.25;63.79;99851.50;10329761;28;20057;-81
2022/04/26 11:02:50;;;;;;;9.13;5.97;;;;;;;11.10;63.82;99856.88;10328605;28;20062;-81
2022/04/26 11:07:54;;;;;;;9.65;6.00;;;;;;;11.12;63.95;99855.84;10338913;28;20737;-81
2022/04/26 11:12:58;;;;;;;8.32;6.38;;;;;;;11.13;63.84;99869.78;10321510;28;20124;-81
2022/04/26 11:18:00;;;;;;;9.73;5.93;;;;;;;10.53;64.06;99884.81;10315621;28;20049;-81
2022/04/26 11:27:59;;;;;;;8.02;6.40;;;;;;;9.94;64.86;99897.94;10329575;28;20135;-81
2022/04/26 11:28:27;;;;;;;8.50;5.65;;;;;;;9.75;64.80;99905.16;10331789;28;20277;-81
2022/04/26 11:33:31;;;;;;;6.47;4.60;;;;;;;9.84;63.78;99917.69;10345808;28;20066;-81
2022/04/26 11:38:33;;;;;;;6.00;4.50;;;;;;;9.73;64.36;99931.34;10335547;28;20096;-81
2022/04/26 11:43:36;;;;;;;5.55;3.88;;;;;;;9.25;64.89;99954.91;10326752;28;20112;-81
2022/04/26 11:48:39;;;;;;;6.38;3.70;;;;;;;9.22;65.25;99950.69;10318661;28;20050;-81
2022/04/26 11:53:41;;;;;;;4.78;3.60;;;;;;;9.22;64.83;99955.91;10324018;28;20559;-81
2022/04/26 11:58:43;;;;;;;7.38;3.47;;;;;;;9.19;63.97;99960.47;10321575;28;20054;-80
2022/04/26 12:03:52;;;;;;;7.85;4.35;;;;;;;8.75;65.81;99970.63;10322334;28;20050;-81
2022/04/26 12:08:57;;;;;;;9.65;4.95;;;;;;;8.69;66.40;99979.59;10315930;28;20524;-81
2022/04/26 12:14:03;;;;;;;5.05;3.83;;;;;;;8.82;65.08;99985.03;10325201;28;20058;-81
2022/04/26 12:19:05;;;;;;;6.22;4.40;;;;;;;8.65;65.32;99991.09;10323279;28;20480;-81
2022/04/26 12:24:21;;;;;;;7.63;5.22;;;;;;;8.43;65.66;99987.03;10317174;28;20105;-81
2022/04/26 12:29:25;;;;;;;8.65;5.50;;;;;;;8.26;66.55;99989.66;10327119;28;20054;-81
2022/04/26 12:34:31;;;;;;;8.95;5.35;;;;;;;8.32;66.61;99995.41;10320857;28;20050;-81
2022/04/26 12:39:43;;;;;;;10.07;5.72;;;;;;;8.36;66.58;99998.72;10326229;28;20111;-81
2022/04/26 12:44:50;;;;;;;8.65;6.13;;;;;;;8.55;66.63;100000.31;10316153;28;20712;-81
2022/04/26 12:55:25;;;;;;;7.65;6.50;;;;;;;8.70;66.39;99993.47;10330735;28;20061;-81
2022/04/26 13:00:28;;;;;;;9.20;7.30;;;;;;;8.93;66.59;99995.75;10327767;28;20507;-81
2022/04/26 13:05:38;;;;;;;11.70;6.97;;;;;;;9.16;66.47;99998.00;10332591;28;20062;-80
2022/04/26 13:10:48;;;;;;;9.30;7.17;;;;;;;9.52;65.74;99995.19;10335437;28;20089;-81
2022/04/26 13:15:50;;;;;;;8.27;6.20;;;;;;;9.45;65.09;100005.13;10336991;28;20058;-81
2022/04/26 13:20:54;;;;;;;8.00;5.10;;;;;;;9.50;64.42;100004.88;10323937;28;20300;-81
2022/04/26 13:25:59;;;;;;;7.53;5.30;;;;;;;9.47;64.44;100005.03;10317595;28;20061;-81
2022/04/26 13:31:01;;;;;;;7.38;5.15;;;;;;;9.60;64.04;100009.53;10338247;28;20740;-81
2022/04/26 13:36:03;;;;;;;7.45;5.47;;;;;;;9.78;63.89;99997.25;10329779;28;20073;-81
2022/04/26 13:41:06;;;;;;;6.47;4.72;;;;;;;9.77;62.86;99992.13;10318609;28;20085;-81
2022/04/26 13:46:07;;;;;;;6.80;5.40;;;;;;;10.01;62.67;99998.56;10332818;28;20082;-81
2022/04/26 13:51:09;;;;;;;7.93;5.53;;;;;;;10.07;62.91;100000.84;10334917;28;20144;-82
2022/04/26 13:56:11;;;;;;;9.38;5.95;;;;;;;10.26;61.99;99991.84;10339320;28;20054;-82
2022/04/26 14:01:13;;;;;;;7.32;4.68;;;;;;;10.22;61.07;100002.56;10318629;28;20566;-82
2022/04/26 14:06:18;;;;;;;8.57;5.20;;;;;;;10.46;61.53;99994.16;10326800;28;20053;-79
2022/04/26 14:11:21;;;;;;;9.48;6.50;;;;;;;11.08;61.10;99993.09;10329288;28;20144;-79
2022/04/26 14:21:47;;;;;;;7.10;4.80;;;;;;;10.72;59.58;100002.25;10319160;28;20058;-79
2022/04/26 14:26:49;;;;;;;7.10;5.20;;;;;;;10.79;60.18;99990.47;10343306;28;20103;-79
2022/04/26 14:31:51;;;;;;;6.75;4.68;;;;;;;11.04;58.65;99996.81;10349096;28;20076;-79
2022/04/26 14:36:53;;;;;;;6.93;4.88;;;;;;;11.00;58.93;99995.28;10333999;28;20042;-79
2022/04/26 14:41:56;;;;;;;5.70;3.90;;;;;;;11.24;57.78;100006.06;10321947;28;20508;-79
2022/04/26 14:46:58;;;;;;;6.80;4.95;;;;;;;11.26;58.58;100012.03;10314349;28;20527;-79
2022/04/26 14:52:00;;;;;;;8.98;4.80;;;;;;;11.11;59.17;100003.34;10335880;28;20054;-80
2022/04/26 14:57:22;;;;;;;6.85;5.43;;;;;;;10.92;60.42;100005.38;10326685;28;20042;-81
2022/04/26 15:02:24;;;;;;;6.70;5.18;;;;;;;10.85;60.07;100005.81;10328426;28;20520;-80
2022/04/26 15:07:25;;;;;;;7.03;4.75;;;;;;;10.89;59.06;100010.78;10309910;28;20054;-80
2022/04/26 15:17:48;;;;;;;7.63;6.33;;;;;;;10.59;61.63;100020.44;10324214;28;20054;-80
2022/04/26 15:22:50;;;;;;;11.75;6.80;;;;;;;10.65;62.22;100020.09;10329393;28;20050;-80
2022/04/26 15:27:52;;;;;;;9.05;6.53;;;;;;;10.55;62.12;100016.31;10324085;28;20085;-80
2022/04/26 15:32:53;;;;;;;9.57;7.35;;;;;;;10.63;62.58;100023.72;10323316;28;20294;-80
2022/04/26 15:37:55;;;;;;;9.57;6.78;;;;;;;10.55;62.29;100024.16;10329935;28;20050;-80
2022/04/26 15:42:57;;;;;;;9.82;7.10;;;;;;;10.52;62.25;100019.13;10322293;28;20058;-80
2022/04/26 15:48:00;;;;;;;9.98;7.03;;;;;;;10.47;62.26;100026.38;10320359;28;20070;-81
2022/04/26 15:53:02;;;;;;;9.95;8.07;;;;;;;10.51;63.14;100027.88;10324345;28;20060;-80
2022/04/26 15:58:09;;;;;;;9.15;6.35;;;;;;;10.31;62.42;100031.66;10319877;28;20056;-81
2022/04/26 16:03:11;;;;;;;12.43;8.18;;;;;;;10.44;63.26;100040.47;10321538;28;20079;-80
2022/04/26 16:08:13;;;;;;;11.93;8.05;;;;;;;10.37;63.60;100049.59;10316439;28;20467;-80
2022/04/26 16:23:57;;;;;;;9.27;7.20;;;;;;;10.19;62.86;100060.25;10331953;28;20057;-80
2022/04/26 16:28:59;;;;;;;7.55;6.03;;;;;;;10.18;62.05;100067.25;10317870;28;20141;-81
2022/04/26 16:34:06;;;;;;;10.00;7.72;;;;;;;10.01;63.84;100075.16;10320852;28;20104;-80
2022/04/26 16:39:08;;;;;;;9.10;7.15;;;;;;;10.00;63.64;100080.47;10340530;28;20050;-80
2022/04/26 16:44:10;;;;;;;8.00;7.05;;;;;;;10.10;63.67;100086.88;10337828;28;20127;-80
2022/04/26 16:49:12;;;;;;;11.90;9.00;;;;;;;10.09;64.11;100088.69;10334340;28;20463;-80
2022/04/26 16:54:14;;;;;;;11.25;8.48;;;;;;;10.07;64.25;100102.75;10319090;28;20093;-81
2022/04/26 16:59:19;;;;;;;22.13;15.55;;;;;;;10.06;65.05;100101.91;10339453;28;20050;-80
2022/04/26 17:04:21;;;;;;;20.30;14.38;;;;;;;9.99;65.83;100097.09;10337679;28;20078;-80
2022/04/26 17:09:23;;;;;;;15.77;10.50;;;;;;;10.15;65.37;100108.41;10326195;28;20144;-80
2022/04/26 17:14:25;;;;;;;16.58;13.00;;;;;;;10.14;65.44;100110.16;10337381;28;20066;-80
2022/04/26 17:19:28;;;;;;;14.70;10.82;;;;;;;10.15;65.33;100117.09;10334852;28;20537;-80
2022/04/26 17:29:50;;;;;;;14.43;9.90;;;;;;;10.03;65.31;100133.44;10341562;28;20507;-80
2022/04/26 17:35:02;;;;;;;14.82;11.43;;;;;;;10.05;65.62;100141.19;10343581;28;20423;-80
2022/04/26 17:40:05;;;;;;;26.55;15.93;;;;;;;10.04;65.79;100145.56;10328150;28;20407;-80
2022/04/26 17:45:08;;;;;;;17.35;12.77;;;;;;;10.08;65.85;100141.84;10324768;28;20734;-80
2022/04/26 17:50:10;;;;;;;11.73;9.77;;;;;;;10.01;65.72;100150.13;10343848;28;20057;-80
2022/04/26 18:00:32;;;;;;;14.70;11.90;;;;;;;9.77;66.19;100146.22;10330513;28;20630;-81
2022/04/26 18:05:34;;;;;;;20.35;14.07;;;;;;;9.76;66.34;100149.72;10319717;28;20718;-80
2022/04/26 18:10:36;;;;;;;16.83;10.45;;;;;;;9.74;66.03;100159.41;10329428;28;20104;-81
2022/04/26 18:15:38;;;;;;;15.52;12.15;;;;;;;9.63;66.47;100157.31;10330625;28;20137;-80
2022/04/26 18:20:40;;;;;;;25.58;16.38;;;;;;;9.67;66.53;100158.06;10333542;28;20050;-81
2022/04/26 18:31:02;;;;;;;25.40;17.20;;;;;;;9.69;66.71;100169.28;10318161;28;20204;-81
2022/04/26 18:36:06;;;;;;;18.23;14.50;;;;;;;9.63;66.66;100171.22;10327384;28;20081;-81
2022/04/26 18:41:08;;;;;;;20.50;15.10;;;;;;;9.61;66.80;100167.00;10335207;28;20062;-81
2022/04/26 18:46:11;;;;;;;20.95;14.65;;;;;;;9.59;66.81;100182.75;10333185;28;20052;-81
2022/04/26 18:51:14;;;;;;;20.63;16.05;;;;;;;9.59;66.94;100181.91;10337139;28;20049;-81
2022/04/26 18:56:16;;;;;;;21.65;13.35;;;;;;;9.50;66.71;100191.06;10321747;28;20129;-81
2022/04/26 19:01:17;;;;;;;25.52;17.30;;;;;;;9.38;67.18;100196.91;10329251;28;20112;-81
2022/04/26 19:06:19;;;;;;;21.73;16.70;;;;;;;9.31;67.03;100195.53;10322233;28;20058;-81
2022/04/26 19:16:41;;;;;;;22.17;16.50;;;;;;;8.98;67.61;100215.47;10327034;28;20504;-81
2022/04/26 19:21:43;;;;;;;28.90;18.27;;;;;;;8.94;67.46;100218.28;10338675;28;20050;-81
2022/04/26 19:26:45;;;;;;;21.40;16.20;;;;;;;8.81;67.64;100226.69;10321308;28;20104;-81
2022/04/26 19:31:47;;;;;;;21.52;14.90;;;;;;;8.83;67.69;100234.47;10324154;28;20062;-81
2022/04/26 19:36:49;;;;;;;18.98;14.55;;;;;;;8.79;67.43;100232.94;10329667;28;20046;-81
2022/04/26 19:41:51;;;;;;;40.70;23.45;;;;;;;8.60;67.95;100237.31;10328448;28;20088;-81
2022/04/26 19:46:58;;;;;;;28.08;19.23;;;;;;;8.26;68.60;100247.59;10331082;28;20096;-81
2022/04/26 19:52:00;;;;;;;32.25;20.63;;;;;;;7.91;69.14;100243.94;10334023;28;20574;-81
2022/04/26 19:57:02;;;;;;;19.88;14.73;;;;;;;7.96;68.92;100242.81;10321535;28;20057;-81
2022/04/26 20:02:04;;;;;;;19.67;15.40;;;;;;;8.01;68.80;100247.81;10320197;28;20050;-81
2022/04/26 20:07:06;;;;;;;26.02;18.55;;;;;;;7.94;68.83;100244.63;10321116;28;20088;-81
2022/04/26 20:12:08;;;;;;;50.00;18.92;;;;;;;7.90;68.89;100253.50;10332691;28;20054;-81
2022/04/26 20:17:09;;;;;;;940.55;41.72;;;;;;;7.85;68.79;100252.84;10335776;28;20085;-81
2022/04/26 20:22:11;;;;;;;955.97;40.28;;;;;;;7.72;69.37;100262.09;10321449;28;20082;-81
2022/04/26 20:32:42;;;;;;;383.80;27.25;;;;;;;7.75;69.33;100272.38;10306842;28;20057;-81
2022/04/26 20:37:44;;;;;;;738.88;31.55;;;;;;;7.71;69.01;100272.59;10313767;28;20141;-81
2022/04/26 20:42:46;;;;;;;959.25;38.70;;;;;;;7.65;69.01;100268.47;10340126;28;20171;-81
2022/04/26 20:47:48;;;;;;;654.03;27.00;;;;;;;7.66;68.98;100269.31;10337498;28;20139;-80
2022/04/26 20:52:50;;;;;;;335.75;20.55;;;;;;;7.69;69.12;100277.00;10336106;28;20426;-81
2022/04/26 20:57:52;;;;;;;345.08;21.40;;;;;;;7.66;68.82;100282.34;10317247;28;20053;-81
2022/04/26 21:03:01;;;;;;;336.83;23.38;;;;;;;7.63;69.12;100285.09;10332772;28;20606;-81
2022/04/26 21:08:03;;;;;;;805.80;39.90;;;;;;;7.58;68.78;100289.63;10325412;28;20054;-80
2022/04/26 21:13:23;;;;;;;649.08;36.25;;;;;;;7.54;68.93;100286.31;10322545;28;20062;-81
2022/04/26 21:18:25;;;;;;;584.13;33.90;;;;;;;7.65;68.74;100288.47;10325231;28;20049;-80
2022/04/26 21:23:27;;;;;;;261.83;28.25;;;;;;;7.61;68.88;100285.13;10332039;28;20380;-80
2022/04/26 21:28:29;;;;;;;178.82;20.20;;;;;;;7.62;69.11;100297.25;10333816;28;20112;-81
2022/04/26 21:33:31;;;;;;;379.92;32.90;;;;;;;7.65;68.99;100304.91;10335844;28;20153;-80
2022/04/26 21:38:34;;;;;;;337.00;25.08;;;;;;;7.66;68.74;100303.16;10333811;28;20061;-80
2022/04/26 21:43:37;;;;;;;587.28;32.13;;;;;;;7.65;68.66;100304.91;10336806;28;20437;-80
2022/04/26 21:48:40;;;;;;;1057.28;48.50;;;;;;;7.68;68.66;100298.75;10331391;28;20058;-80
2022/04/26 21:53:42;;;;;;;116.53;17.65;;;;;;;7.60;68.79;100304.28;10336542;28;20096;-80
2022/04/26 21:58:44;;;;;;;55.67;14.65;;;;;;;7.69;69.00;100305.66;10333228;28;20152;-80
2022/04/26 22:03:46;;;;;;;34.97;15.00;;;;;;;7.73;68.86;100313.25;10332079;28;20092;-80
2022/04/26 22:08:48;;;;;;;29.10;16.67;;;;;;;7.85;68.65;100315.31;10329064;28;20050;-80
2022/04/26 22:13:50;;;;;;;111.05;17.92;;;;;;;7.95;68.33;100315.81;10321562;28;20054;-80
2022/04/26 22:18:52;;;;;;;440.35;29.00;;;;;;;7.93;68.49;100326.28;10315011;28;20082;-80
2022/04/26 22:23:54;;;;;;;134.63;30.63;;;;;;;7.92;68.41;100321.13;10325533;28;20058;-80
2022/04/26 22:28:57;;;;;;;37.20;20.08;;;;;;;7.94;68.24;100314.94;10344942;28;20479;-80
2022/04/26 22:34:00;;;;;;;35.42;20.98;;;;;;;8.01;68.38;100326.81;10323719;28;20086;-80
2022/04/26 22:39:02;;;;;;;26.58;17.58;;;;;;;8.04;68.33;100326.66;10333137;28;20057;-80
2022/04/26 22:44:03;;;;;;;23.13;17.45;;;;;;;8.02;68.53;100327.63;10330602;28;20124;-80
2022/04/26 22:49:06;;;;;;;26.58;19.00;;;;;;;7.94;68.76;100333.19;10330199;28;20050;-80
2022/04/26 22:54:07;;;;;;;29.35;19.40;;;;;;;7.74;69.14;100348.78;10325836;28;20410;-80
2022/04/26 22:59:09;;;;;;;38.35;25.20;;;;;;;7.63;69.57;100353.59;10333100;28;20168;-80
2022/04/26 23:04:11;;;;;;;46.40;22.77;;;;;;;7.58;69.47;100354.69;10338157;28;20504;-80
2022/04/26 23:09:13;;;;;;;25.55;18.60;;;;;;;7.51;69.04;100371.47;10334893;28;20293;-80
2022/04/26 23:14:15;;;;;;;39.72;21.95;;;;;;;7.42;69.37;100362.28;10324812;28;20058;-80
2022/04/26 23:19:17;;;;;;;51.08;25.55;;;;;;;7.34;69.27;100356.53;10341089;28;20314;-80
2022/04/26 23:24:18;;;;;;;50.08;27.45;;;;;;;7.25;69.42;100367.28;10324993;28;20143;-80
2022/04/26 23:29:20;;;;;;;29.27;21.25;;;;;;;7.16;69.48;100367.66;10319778;28;20086;-80
2022/04/26 23:39:42;;;;;;;72.17;34.33;;;;;;;7.26;69.36;100371.59;10316422;28;20054;-80
2022/04/26 23:44:44;;;;;;;84.60;34.88;;;;;;;7.30;69.53;100369.72;10322576;28;20054;-80
2022/04/26 23:49:46;;;;;;;47.78;29.52;;;;;;;7.42;69.40;100366.63;10343011;28;20073;-80
2022/04/26 23:54:48;;;;;;;48.00;30.25;;;;;;;7.59;69.32;100367.63;10335289;28;20549;-80
2022/04/26 23:59:50;;;;;;;61.63;31.98;;;;;;;7.72;69.36;100376.66;10334320;28;20073;-80
